createdAt,value
2022-08-22T00:00:38.922Z,90.57
2022-08-22T00:01:39.499Z,90.57
2022-08-22T00:02:40.439Z,90.36
2022-08-22T00:02:44.175Z,85.55
2022-08-22T00:02:47.156Z,86.71
2022-08-22T00:02:54.108Z,84.32
2022-08-22T00:03:02.493Z,82.90
2022-08-22T00:03:03.717Z,84.05
2022-08-22T00:03:08.735Z,89.26
2022-08-22T00:03:11.075Z,87.35
2022-08-22T00:03:12.559Z,90.98
2022-08-22T00:03:41.255Z,90.36
2022-08-22T00:04:42.137Z,90.16
2022-08-22T00:05:43.009Z,90.06
2022-08-22T00:06:43.892Z,90.71
2022-08-22T00:07:44.776Z,90.41
2022-08-22T00:08:45.647Z,90.51
2022-08-22T00:09:46.520Z,90.81
2022-08-22T00:10:47.401Z,91.02
2022-08-22T00:11:48.283Z,90.92
2022-08-22T00:12:49.166Z,91.53
2022-08-22T00:13:52.623Z,91.33
2022-08-22T00:14:51.805Z,91.53
2022-08-22T00:15:51.676Z,91.47
2022-08-22T00:16:53.478Z,91.16
2022-08-22T00:17:53.498Z,91.37
2022-08-22T00:18:54.349Z,91.37
2022-08-22T00:19:55.229Z,91.47
2022-08-22T00:20:56.101Z,91.27
2022-08-22T00:21:56.985Z,91.06
2022-08-22T00:22:57.855Z,90.96
2022-08-22T00:23:58.729Z,90.96
2022-08-22T00:24:59.348Z,91.47
2022-08-22T00:26:00.226Z,91.06
2022-08-22T00:27:01.114Z,91.37
2022-08-22T00:28:02.009Z,91.98
2022-08-22T00:29:02.908Z,92.39
2022-08-22T00:30:03.785Z,92.29
2022-08-22T00:31:04.689Z,92.29
2022-08-22T00:32:05.280Z,92.39
2022-08-22T00:33:06.155Z,92.08
2022-08-22T00:34:07.027Z,91.98
2022-08-22T00:35:07.909Z,92.19
2022-08-22T00:36:08.789Z,92.19
2022-08-22T00:37:09.681Z,92.02
2022-08-22T00:38:10.560Z,92.23
2022-08-22T00:39:11.435Z,92.29
2022-08-22T00:40:12.318Z,92.13
2022-08-22T00:41:13.179Z,92.39
2022-08-22T00:42:14.069Z,92.39
2022-08-22T00:43:14.945Z,92.08
2022-08-22T00:44:15.832Z,92.29
2022-08-22T00:45:16.704Z,92.39
2022-08-22T00:46:17.586Z,91.98
2022-08-22T00:47:18.471Z,92.08
2022-08-22T00:48:19.356Z,91.67
2022-08-22T00:49:20.236Z,91.88
2022-08-22T00:50:21.132Z,91.88
2022-08-22T00:51:22.010Z,91.78
2022-08-22T00:52:22.903Z,91.37
2022-08-22T00:53:23.780Z,90.92
2022-08-22T00:54:24.650Z,90.71
2022-08-22T00:55:25.524Z,90.71
2022-08-22T00:56:26.382Z,90.61
2022-08-22T00:57:27.257Z,90.10
2022-08-22T00:58:28.126Z,90.10
2022-08-22T00:59:28.998Z,90.10
2022-08-22T01:00:29.869Z,89.90
2022-08-22T01:01:31.712Z,89.90
2022-08-22T01:02:31.591Z,89.69
2022-08-22T01:03:32.462Z,89.49
2022-08-22T01:04:33.343Z,89.59
2022-08-22T01:05:34.218Z,89.28
2022-08-22T01:06:35.087Z,89.32
2022-08-22T01:07:38.131Z,89.53
2022-08-22T01:08:36.840Z,89.73
2022-08-22T01:09:37.717Z,90.04
2022-08-22T01:10:38.588Z,90.39
2022-08-22T01:11:39.460Z,90.80
2022-08-22T01:12:40.352Z,91.00
2022-08-22T01:13:41.224Z,91.52
2022-08-22T01:14:42.109Z,91.61
2022-08-22T01:15:43.004Z,92.07
2022-08-22T01:16:43.905Z,92.17
2022-08-22T01:17:44.811Z,92.33
2022-08-22T01:18:45.713Z,92.47
2022-08-22T01:19:46.603Z,92.58
2022-08-22T01:20:47.497Z,92.37
2022-08-22T01:21:48.371Z,92.27
2022-08-22T01:22:49.279Z,92.78
2022-08-22T01:23:50.152Z,92.68
2022-08-22T01:24:51.031Z,92.99
2022-08-22T01:25:51.715Z,92.99
2022-08-22T01:26:52.602Z,92.99
2022-08-22T01:27:53.478Z,92.78
2022-08-22T01:28:54.307Z,92.88
2022-08-22T01:29:55.000Z,92.78
2022-08-22T01:30:55.880Z,92.78
2022-08-22T01:31:56.761Z,92.58
2022-08-22T01:32:57.683Z,92.68
2022-08-22T01:33:58.579Z,92.47
2022-08-22T01:34:59.456Z,92.58
2022-08-22T01:36:00.347Z,92.37
2022-08-22T01:37:01.205Z,92.37
2022-08-22T01:38:02.088Z,92.27
2022-08-22T01:39:02.979Z,92.47
2022-08-22T01:40:03.933Z,92.27
2022-08-22T01:41:04.399Z,92.27
2022-08-22T01:42:05.313Z,92.27
2022-08-22T01:43:06.191Z,92.37
2022-08-22T01:44:07.064Z,91.86
2022-08-22T01:45:07.955Z,91.96
2022-08-22T01:46:08.827Z,92.17
2022-08-22T01:47:09.709Z,91.86
2022-08-22T01:48:10.590Z,92.07
2022-08-22T01:49:11.521Z,91.96
2022-08-22T01:50:12.392Z,91.96
2022-08-22T01:51:13.283Z,92.17
2022-08-22T01:52:14.147Z,91.96
2022-08-22T01:53:15.039Z,91.96
2022-08-22T01:54:15.926Z,92.17
2022-08-22T01:55:16.830Z,92.07
2022-08-22T01:56:17.706Z,92.07
2022-08-22T01:57:18.618Z,91.96
2022-08-22T01:58:19.504Z,92.27
2022-08-22T01:59:20.406Z,91.96
2022-08-22T02:00:35.119Z,92.07
2022-08-22T02:01:23.024Z,92.07
2022-08-22T02:02:22.887Z,91.96
2022-08-22T02:03:23.780Z,91.96
2022-08-22T02:04:24.645Z,91.96
2022-08-22T02:05:25.514Z,92.07
2022-08-22T02:06:26.388Z,92.07
2022-08-22T02:07:32.033Z,91.86
2022-08-22T02:08:29.061Z,91.96
2022-08-22T02:09:28.935Z,91.76
2022-08-22T02:10:29.810Z,91.76
2022-08-22T02:11:30.679Z,91.76
2022-08-22T02:12:31.553Z,91.56
2022-08-22T02:13:32.433Z,91.66
2022-08-22T02:14:33.303Z,91.76
2022-08-22T02:15:34.194Z,91.76
2022-08-22T02:16:35.061Z,91.86
2022-08-22T02:17:35.955Z,92.07
2022-08-22T02:18:36.835Z,92.21
2022-08-22T02:19:37.716Z,92.32
2022-08-22T02:20:38.598Z,92.52
2022-08-22T02:21:39.478Z,92.32
2022-08-22T02:22:44.682Z,92.62
2022-08-22T02:23:41.243Z,92.72
2022-08-22T02:24:42.114Z,92.83
2022-08-22T02:25:42.995Z,92.83
2022-08-22T02:26:43.867Z,92.83
2022-08-22T02:27:44.750Z,92.93
2022-08-22T02:28:56.448Z,92.93
2022-08-22T02:29:47.439Z,92.93
2022-08-22T02:30:47.282Z,93.03
2022-08-22T02:31:48.163Z,93.03
2022-08-22T02:32:49.084Z,93.13
2022-08-22T02:33:49.930Z,93.24
2022-08-22T02:34:50.801Z,93.33
2022-08-22T02:35:51.674Z,92.93
2022-08-22T02:36:52.556Z,93.03
2022-08-22T02:37:53.490Z,93.24
2022-08-22T02:38:54.333Z,93.44
2022-08-22T02:39:55.267Z,93.03
2022-08-22T02:40:56.114Z,93.03
2022-08-22T02:41:56.996Z,93.13
2022-08-22T02:42:57.947Z,92.83
2022-08-22T02:43:58.833Z,92.52
2022-08-22T02:44:59.676Z,92.62
2022-08-22T02:46:00.543Z,92.62
2022-08-22T02:47:01.419Z,92.52
2022-08-22T02:48:02.320Z,92.52
2022-08-22T02:49:03.189Z,92.42
2022-08-22T02:50:04.069Z,92.52
2022-08-22T02:51:04.873Z,92.42
2022-08-22T02:52:05.746Z,92.32
2022-08-22T02:53:06.627Z,92.11
2022-08-22T02:54:07.569Z,92.01
2022-08-22T02:55:08.442Z,91.80
2022-08-22T02:56:09.319Z,92.11
2022-08-22T02:57:14.197Z,92.21
2022-08-22T02:58:10.967Z,92.32
2022-08-22T02:59:11.838Z,92.52
2022-08-22T03:00:30.778Z,92.42
2022-08-22T03:01:14.547Z,92.11
2022-08-22T03:02:14.385Z,92.01
2022-08-22T03:03:15.269Z,92.52
2022-08-22T03:04:16.150Z,92.52
2022-08-22T03:05:17.023Z,92.32
2022-08-22T03:06:17.914Z,92.46
2022-08-22T03:07:18.527Z,92.66
2022-08-22T03:08:21.104Z,92.66
2022-08-22T03:09:20.153Z,92.77
2022-08-22T03:10:21.024Z,92.87
2022-08-22T03:11:21.895Z,92.97
2022-08-22T03:12:22.766Z,92.77
2022-08-22T03:13:23.648Z,92.87
2022-08-22T03:14:24.541Z,92.77
2022-08-22T03:15:25.404Z,92.77
2022-08-22T03:16:26.284Z,93.07
2022-08-22T03:17:27.157Z,92.87
2022-08-22T03:18:28.063Z,92.87
2022-08-22T03:19:28.954Z,92.97
2022-08-22T03:20:29.867Z,92.66
2022-08-22T03:21:30.759Z,92.77
2022-08-22T03:22:31.636Z,92.66
2022-08-22T03:23:32.538Z,92.87
2022-08-22T03:24:33.430Z,92.97
2022-08-22T03:25:34.293Z,92.87
2022-08-22T03:26:35.203Z,93.07
2022-08-22T03:27:36.089Z,93.07
2022-08-22T03:28:36.968Z,93.18
2022-08-22T03:29:37.845Z,93.07
2022-08-22T03:30:38.712Z,93.18
2022-08-22T03:31:39.585Z,93.28
2022-08-22T03:32:40.477Z,93.18
2022-08-22T03:33:41.358Z,93.07
2022-08-22T03:34:42.229Z,93.07
2022-08-22T03:35:43.103Z,93.22
2022-08-22T03:36:43.984Z,93.12
2022-08-22T03:37:44.915Z,93.01
2022-08-22T03:38:45.819Z,93.12
2022-08-22T03:39:46.728Z,93.22
2022-08-22T03:40:47.563Z,93.22
2022-08-22T03:41:48.436Z,93.22
2022-08-22T03:42:49.318Z,93.32
2022-08-22T03:43:49.820Z,93.22
2022-08-22T03:44:50.709Z,93.22
2022-08-22T03:45:51.583Z,93.01
2022-08-22T03:46:52.455Z,93.22
2022-08-22T03:47:53.354Z,93.12
2022-08-22T03:48:54.216Z,93.32
2022-08-22T03:49:59.379Z,93.01
2022-08-22T03:50:56.004Z,93.32
2022-08-22T03:51:56.876Z,93.32
2022-08-22T03:52:57.753Z,93.32
2022-08-22T03:53:58.632Z,93.22
2022-08-22T03:54:59.512Z,93.22
2022-08-22T03:56:00.384Z,93.12
2022-08-22T03:57:01.259Z,93.22
2022-08-22T03:58:02.143Z,93.01
2022-08-22T03:59:03.034Z,93.01
2022-08-22T04:00:04.802Z,93.12
2022-08-22T04:01:04.769Z,93.12
2022-08-22T04:02:24.668Z,93.22
2022-08-22T04:03:07.318Z,93.22
2022-08-22T04:04:07.256Z,93.22
2022-08-22T04:05:08.056Z,93.32
2022-08-22T04:06:11.438Z,93.22
2022-08-22T04:07:15.974Z,93.32
2022-08-22T04:08:13.036Z,93.22
2022-08-22T04:09:11.554Z,93.12
2022-08-22T04:10:12.403Z,93.12
2022-08-22T04:11:13.203Z,93.01
2022-08-22T04:12:14.029Z,92.91
2022-08-22T04:13:14.845Z,93.22
2022-08-22T04:14:15.684Z,93.32
2022-08-22T04:15:16.502Z,93.12
2022-08-22T04:16:17.333Z,93.43
2022-08-22T04:17:18.187Z,93.43
2022-08-22T04:18:19.001Z,93.22
2022-08-22T04:19:19.826Z,93.12
2022-08-22T04:20:20.646Z,92.81
2022-08-22T04:21:21.473Z,93.01
2022-08-22T04:22:22.299Z,92.91
2022-08-22T04:23:23.129Z,93.01
2022-08-22T04:24:23.948Z,93.12
2022-08-22T04:25:24.794Z,93.12
2022-08-22T04:26:25.625Z,93.12
2022-08-22T04:27:26.443Z,93.12
2022-08-22T04:28:27.261Z,93.12
2022-08-22T04:29:28.105Z,92.91
2022-08-22T04:30:28.917Z,92.91
2022-08-22T04:31:29.748Z,92.91
2022-08-22T04:32:30.564Z,93.01
2022-08-22T04:33:31.381Z,92.81
2022-08-22T04:34:32.225Z,92.91
2022-08-22T04:35:33.049Z,92.71
2022-08-22T04:36:33.872Z,92.50
2022-08-22T04:37:34.755Z,92.40
2022-08-22T04:38:35.533Z,92.91
2022-08-22T04:39:36.524Z,92.91
2022-08-22T04:40:37.387Z,92.81
2022-08-22T04:41:38.183Z,93.12
2022-08-22T04:42:39.004Z,93.32
2022-08-22T04:43:39.828Z,93.43
2022-08-22T04:44:40.666Z,93.32
2022-08-22T04:45:41.517Z,93.73
2022-08-22T04:46:42.348Z,93.52
2022-08-22T04:47:43.151Z,93.37
2022-08-22T04:48:43.761Z,93.22
2022-08-22T04:49:44.601Z,93.32
2022-08-22T04:50:45.420Z,93.52
2022-08-22T04:51:46.269Z,93.84
2022-08-22T04:52:47.075Z,93.52
2022-08-22T04:53:47.903Z,93.43
2022-08-22T04:54:48.747Z,93.43
2022-08-22T04:55:49.574Z,93.43
2022-08-22T04:56:50.340Z,93.43
2022-08-22T04:57:51.195Z,93.22
2022-08-22T04:58:51.986Z,93.01
2022-08-22T04:59:52.817Z,93.43
2022-08-22T05:00:53.659Z,93.12
2022-08-22T05:01:54.550Z,93.22
2022-08-22T05:02:55.331Z,93.12
2022-08-22T05:03:56.167Z,92.91
2022-08-22T05:04:57.108Z,92.91
2022-08-22T05:05:57.852Z,93.12
2022-08-22T05:06:58.669Z,93.26
2022-08-22T05:07:59.823Z,93.16
2022-08-22T05:09:00.423Z,93.26
2022-08-22T05:10:11.607Z,93.57
2022-08-22T05:11:02.959Z,93.67
2022-08-22T05:12:02.791Z,93.57
2022-08-22T05:13:03.609Z,93.26
2022-08-22T05:14:04.441Z,93.67
2022-08-22T05:15:05.288Z,93.67
2022-08-22T05:16:05.968Z,94.08
2022-08-22T05:17:06.797Z,94.12
2022-08-22T05:18:07.620Z,93.92
2022-08-22T05:19:10.301Z,94.02
2022-08-22T05:20:09.422Z,94.12
2022-08-22T05:21:11.131Z,94.33
2022-08-22T05:22:11.089Z,94.64
2022-08-22T05:23:17.143Z,94.74
2022-08-22T05:24:13.634Z,94.74
2022-08-22T05:25:13.470Z,94.64
2022-08-22T05:26:14.289Z,94.74
2022-08-22T05:27:15.162Z,94.74
2022-08-22T05:28:16.000Z,94.95
2022-08-22T05:29:16.889Z,94.95
2022-08-22T05:30:17.796Z,95.05
2022-08-22T05:31:18.605Z,94.84
2022-08-22T05:32:19.159Z,94.64
2022-08-22T05:33:19.987Z,95.51
2022-08-22T05:34:20.807Z,95.62
2022-08-22T05:35:21.690Z,95.72
2022-08-22T05:36:22.471Z,94.80
2022-08-22T05:37:23.296Z,94.39
2022-08-22T05:38:24.119Z,94.29
2022-08-22T05:39:25.434Z,94.59
2022-08-22T05:40:25.861Z,94.59
2022-08-22T05:41:26.678Z,94.70
2022-08-22T05:42:27.576Z,94.90
2022-08-22T05:43:28.409Z,95.00
2022-08-22T05:44:29.221Z,95.10
2022-08-22T05:45:30.057Z,95.00
2022-08-22T05:46:30.888Z,95.10
2022-08-22T05:47:31.704Z,95.00
2022-08-22T05:48:32.548Z,95.00
2022-08-22T05:49:33.047Z,94.90
2022-08-22T05:50:33.891Z,95.00
2022-08-22T05:51:34.703Z,95.00
2022-08-22T05:52:35.520Z,95.10
2022-08-22T05:53:36.359Z,95.00
2022-08-22T05:54:37.177Z,95.10
2022-08-22T05:55:38.016Z,95.21
2022-08-22T05:56:38.843Z,95.21
2022-08-22T05:57:39.659Z,95.10
2022-08-22T05:58:40.477Z,95.10
2022-08-22T05:59:41.315Z,95.10
2022-08-22T06:00:42.141Z,95.06
2022-08-22T06:01:43.054Z,95.06
2022-08-22T06:02:43.848Z,94.96
2022-08-22T06:03:44.708Z,95.06
2022-08-22T06:04:45.499Z,95.06
2022-08-22T06:05:46.318Z,94.96
2022-08-22T06:06:47.144Z,94.96
2022-08-22T06:07:47.964Z,95.17
2022-08-22T06:08:48.785Z,95.17
2022-08-22T06:09:49.626Z,94.85
2022-08-22T06:10:50.432Z,94.65
2022-08-22T06:11:51.631Z,94.85
2022-08-22T06:12:51.929Z,94.71
2022-08-22T06:13:52.755Z,95.17
2022-08-22T06:14:53.501Z,95.06
2022-08-22T06:15:54.314Z,95.02
2022-08-22T06:16:55.134Z,94.51
2022-08-22T06:17:56.036Z,94.51
2022-08-22T06:18:56.500Z,94.81
2022-08-22T06:19:57.331Z,94.30
2022-08-22T06:20:58.160Z,94.60
2022-08-22T06:21:58.977Z,94.60
2022-08-22T06:22:59.796Z,94.60
2022-08-22T06:24:00.634Z,94.81
2022-08-22T06:25:01.463Z,94.92
2022-08-22T06:26:02.289Z,94.92
2022-08-22T06:27:03.126Z,94.71
2022-08-22T06:28:03.934Z,94.46
2022-08-22T06:29:04.753Z,94.46
2022-08-22T06:30:05.580Z,94.36
2022-08-22T06:31:06.401Z,94.46
2022-08-22T06:32:07.216Z,94.42
2022-08-22T06:33:08.072Z,94.52
2022-08-22T06:34:08.679Z,94.52
2022-08-22T06:35:09.506Z,94.52
2022-08-22T06:36:10.324Z,94.32
2022-08-22T06:37:11.142Z,93.96
2022-08-22T06:38:11.959Z,94.07
2022-08-22T06:39:12.789Z,94.27
2022-08-22T06:40:13.656Z,93.66
2022-08-22T06:41:14.446Z,93.10
2022-08-22T06:42:16.889Z,93.10
2022-08-22T06:43:15.862Z,93.41
2022-08-22T06:44:16.679Z,93.31
2022-08-22T06:45:17.521Z,93.71
2022-08-22T06:46:18.356Z,93.47
2022-08-22T06:47:19.188Z,93.37
2022-08-22T06:48:20.005Z,93.16
2022-08-22T06:49:20.824Z,93.06
2022-08-22T06:50:21.664Z,93.02
2022-08-22T06:51:22.492Z,92.41
2022-08-22T06:52:23.412Z,91.69
2022-08-22T06:53:24.231Z,91.69
2022-08-22T06:54:25.049Z,91.39
2022-08-22T06:55:25.878Z,91.08
2022-08-22T06:56:26.718Z,91.18
2022-08-22T06:57:27.545Z,91.85
2022-08-22T06:58:32.832Z,91.85
2022-08-22T06:59:30.099Z,92.05
2022-08-22T07:00:29.928Z,90.53
2022-08-22T07:01:30.788Z,90.12
2022-08-22T07:02:31.575Z,90.28
2022-08-22T07:03:32.403Z,90.89
2022-08-22T07:04:33.237Z,90.59
2022-08-22T07:05:34.067Z,90.55
2022-08-22T07:06:34.915Z,90.34
2022-08-22T07:07:35.733Z,89.48
2022-08-22T07:08:39.116Z,88.16
2022-08-22T07:09:37.098Z,88.36
2022-08-22T07:10:37.941Z,88.32
2022-08-22T07:11:38.758Z,88.02
2022-08-22T07:12:39.575Z,87.37
2022-08-22T07:13:40.394Z,88.08
2022-08-22T07:14:41.311Z,87.12
2022-08-22T07:15:42.141Z,85.25
2022-08-22T07:16:42.970Z,85.92
2022-08-22T07:17:43.777Z,86.29
2022-08-22T07:18:44.595Z,84.91
2022-08-22T07:19:45.414Z,82.98
2022-08-22T07:20:46.644Z,84.26
2022-08-22T07:21:47.024Z,84.22
2022-08-22T07:22:47.868Z,82.52
2022-08-22T07:23:48.682Z,82.58
2022-08-22T07:24:49.428Z,79.44
2022-08-22T07:25:50.281Z,78.42
2022-08-22T07:26:51.099Z,79.64
2022-08-22T07:27:51.917Z,80.65
2022-08-22T07:28:57.896Z,81.52
2022-08-22T07:29:54.459Z,79.00
2022-08-22T07:30:54.157Z,78.45
2022-08-22T07:31:55.097Z,78.82
2022-08-22T07:32:55.913Z,78.05
2022-08-22T07:33:56.424Z,78.01
2022-08-22T07:34:57.251Z,76.29
2022-08-22T07:35:58.070Z,75.34
2022-08-22T07:36:58.888Z,75.24
2022-08-22T07:38:00.061Z,75.24
2022-08-22T07:39:00.503Z,75.38
2022-08-22T07:40:01.260Z,75.11
2022-08-22T07:41:02.054Z,76.23
2022-08-22T07:42:02.870Z,76.16
2022-08-22T07:43:03.688Z,76.97
2022-08-22T07:44:04.507Z,77.21
2022-08-22T07:45:05.334Z,77.51
2022-08-22T07:46:06.173Z,77.82
2022-08-22T07:47:07.007Z,78.53
2022-08-22T07:48:07.824Z,77.41
2022-08-22T07:49:10.011Z,78.16
2022-08-22T07:50:09.489Z,79.58
2022-08-22T07:51:10.316Z,79.78
2022-08-22T07:52:11.136Z,79.68
2022-08-22T07:53:11.972Z,79.68
2022-08-22T07:54:12.903Z,80.08
2022-08-22T07:55:13.720Z,80.22
2022-08-22T07:56:14.550Z,80.69
2022-08-22T07:57:15.377Z,82.58
2022-08-22T07:58:16.195Z,81.93
2022-08-22T07:59:17.030Z,80.38
2022-08-22T08:00:17.845Z,79.63
2022-08-22T08:01:18.712Z,78.68
2022-08-22T08:02:19.506Z,79.52
2022-08-22T08:03:20.330Z,78.77
2022-08-22T08:04:21.154Z,76.82
2022-08-22T08:05:21.989Z,75.77
2022-08-22T08:06:22.814Z,75.37
2022-08-22T08:07:23.641Z,74.83
2022-08-22T08:08:24.477Z,73.99
2022-08-22T08:09:25.293Z,73.95
2022-08-22T08:10:26.110Z,73.01
2022-08-22T08:11:26.945Z,72.97
2022-08-22T08:12:27.775Z,72.24
2022-08-22T08:13:28.603Z,71.60
2022-08-22T08:14:29.430Z,71.00
2022-08-22T08:15:30.282Z,70.06
2022-08-22T08:16:31.094Z,70.26
2022-08-22T08:17:32.465Z,70.56
2022-08-22T08:18:32.814Z,70.56
2022-08-22T08:19:33.636Z,70.86
2022-08-22T08:20:34.459Z,70.06
2022-08-22T08:21:35.300Z,70.86
2022-08-22T08:22:36.133Z,70.46
2022-08-22T08:23:39.561Z,70.16
2022-08-22T08:24:40.160Z,70.16
2022-08-22T08:25:38.323Z,70.26
2022-08-22T08:26:39.141Z,70.06
2022-08-22T08:27:39.968Z,69.25
2022-08-22T08:28:40.802Z,69.06
2022-08-22T08:29:41.634Z,69.56
2022-08-22T08:30:42.445Z,69.76
2022-08-22T08:31:45.031Z,69.56
2022-08-22T08:32:43.932Z,69.85
2022-08-22T08:33:44.755Z,69.35
2022-08-22T08:34:45.570Z,68.55
2022-08-22T08:36:01.942Z,69.06
2022-08-22T08:36:48.109Z,69.56
2022-08-22T08:37:47.926Z,69.89
2022-08-22T08:38:48.757Z,70.89
2022-08-22T08:39:49.627Z,70.89
2022-08-22T08:40:50.414Z,71.50
2022-08-22T08:41:51.236Z,71.77
2022-08-22T08:42:52.048Z,71.36
2022-08-22T08:43:52.864Z,71.77
2022-08-22T08:44:53.683Z,71.87
2022-08-22T08:45:56.405Z,71.56
2022-08-22T08:46:55.592Z,70.86
2022-08-22T08:47:55.906Z,70.96
2022-08-22T08:48:56.436Z,70.56
2022-08-22T08:49:57.274Z,70.16
2022-08-22T08:50:58.104Z,70.59
2022-08-22T08:51:58.831Z,70.59
2022-08-22T08:52:59.650Z,71.00
2022-08-22T08:54:00.242Z,71.00
2022-08-22T08:55:00.809Z,70.83
2022-08-22T08:56:01.595Z,71.23
2022-08-22T08:57:02.414Z,71.83
2022-08-22T08:58:06.705Z,72.84
2022-08-22T08:59:03.973Z,73.85
2022-08-22T09:00:05.699Z,74.05
2022-08-22T09:01:05.571Z,73.24
2022-08-22T09:02:06.359Z,72.64
2022-08-22T09:03:07.418Z,73.11
2022-08-22T09:04:15.248Z,73.71
2022-08-22T09:05:09.410Z,73.81
2022-08-22T09:06:08.997Z,73.11
2022-08-22T09:07:09.817Z,71.06
2022-08-22T09:08:11.806Z,69.45
2022-08-22T09:09:11.201Z,67.35
2022-08-22T09:10:12.036Z,66.03
2022-08-22T09:11:14.351Z,65.84
2022-08-22T09:12:13.754Z,66.74
2022-08-22T09:13:14.346Z,65.84
2022-08-22T09:14:15.171Z,64.83
2022-08-22T09:15:15.999Z,65.53
2022-08-22T09:16:16.819Z,65.91
2022-08-22T09:17:17.327Z,64.83
2022-08-22T09:18:18.401Z,64.73
2022-08-22T09:19:18.722Z,63.42
2022-08-22T09:20:19.746Z,62.72
2022-08-22T09:21:27.594Z,63.53
2022-08-22T09:22:22.226Z,63.53
2022-08-22T09:23:22.032Z,64.13
2022-08-22T09:24:23.403Z,65.64
2022-08-22T09:25:23.848Z,66.34
2022-08-22T09:26:24.611Z,65.73
2022-08-22T09:27:25.428Z,64.83
2022-08-22T09:28:28.379Z,65.30
2022-08-22T09:29:29.070Z,65.64
2022-08-22T09:30:28.961Z,65.50
2022-08-22T09:31:44.822Z,64.83
2022-08-22T09:32:29.946Z,64.70
2022-08-22T09:33:29.763Z,65.10
2022-08-22T09:34:30.592Z,64.40
2022-08-22T09:35:31.429Z,64.40
2022-08-22T09:36:32.369Z,65.00
2022-08-22T09:37:33.323Z,66.11
2022-08-22T09:39:35.849Z,65.10
2022-08-22T09:40:35.677Z,65.20
2022-08-22T09:41:36.496Z,65.57
2022-08-22T09:42:37.314Z,65.77
2022-08-22T09:43:38.208Z,63.67
2022-08-22T09:44:40.102Z,62.76
2022-08-22T09:45:39.392Z,61.55
2022-08-22T09:46:40.211Z,62.16
2022-08-22T09:47:41.059Z,63.06
2022-08-22T09:48:42.479Z,63.56
2022-08-22T09:49:42.843Z,61.86
2022-08-22T09:50:43.643Z,62.26
2022-08-22T09:51:44.489Z,61.35
2022-08-22T09:52:45.308Z,62.26
2022-08-22T09:53:46.128Z,61.76
2022-08-22T09:54:47.114Z,61.58
2022-08-22T09:55:47.974Z,61.88
2022-08-22T09:56:48.920Z,62.99
2022-08-22T09:57:49.529Z,64.30
2022-08-22T09:58:50.479Z,64.70
2022-08-22T09:59:51.295Z,65.10
2022-08-22T10:00:54.969Z,64.20
2022-08-22T10:01:53.072Z,64.50
2022-08-22T10:02:53.900Z,63.19
2022-08-22T10:03:54.716Z,64.07
2022-08-22T10:04:55.216Z,62.86
2022-08-22T10:05:56.044Z,63.26
2022-08-22T10:06:56.862Z,63.06
2022-08-22T10:07:57.398Z,63.56
2022-08-22T10:08:58.221Z,63.76
2022-08-22T10:09:59.048Z,63.53
2022-08-22T10:10:59.596Z,63.43
2022-08-22T10:12:00.411Z,63.13
2022-08-22T10:13:01.537Z,62.93
2022-08-22T10:14:02.055Z,63.31
2022-08-22T10:15:02.858Z,60.19
2022-08-22T10:16:03.623Z,60.60
2022-08-22T10:17:04.497Z,59.39
2022-08-22T10:18:05.436Z,59.79
2022-08-22T10:19:06.264Z,60.69
2022-08-22T10:20:07.112Z,60.89
2022-08-22T10:21:08.079Z,59.49
2022-08-22T10:22:08.929Z,59.99
2022-08-22T10:23:09.720Z,59.19
2022-08-22T10:24:10.547Z,59.29
2022-08-22T10:25:11.047Z,59.92
2022-08-22T10:26:11.876Z,58.22
2022-08-22T10:27:13.590Z,59.32
2022-08-22T10:28:13.365Z,58.81
2022-08-22T10:29:14.192Z,59.79
2022-08-22T10:30:15.608Z,59.89
2022-08-22T10:31:15.256Z,59.89
2022-08-22T10:32:16.073Z,59.19
2022-08-22T10:33:16.998Z,59.29
2022-08-22T10:34:17.810Z,58.29
2022-08-22T10:35:18.780Z,57.89
2022-08-22T10:36:19.618Z,58.69
2022-08-22T10:37:23.781Z,59.89
2022-08-22T10:38:20.702Z,58.69
2022-08-22T10:39:22.281Z,58.59
2022-08-22T10:40:21.975Z,58.79
2022-08-22T10:41:22.765Z,59.59
2022-08-22T10:42:23.598Z,59.59
2022-08-22T10:43:29.120Z,57.46
2022-08-22T10:44:24.975Z,57.56
2022-08-22T10:45:36.021Z,56.76
2022-08-22T10:46:27.518Z,57.15
2022-08-22T10:47:27.339Z,57.86
2022-08-22T10:48:28.170Z,56.56
2022-08-22T10:49:29.007Z,56.05
2022-08-22T10:50:31.069Z,56.15
2022-08-22T10:51:30.103Z,56.35
2022-08-22T10:52:30.932Z,56.18
2022-08-22T10:53:31.751Z,56.96
2022-08-22T10:54:32.648Z,56.05
2022-08-22T10:55:33.432Z,56.65
2022-08-22T10:56:34.254Z,56.76
2022-08-22T10:57:34.853Z,57.86
2022-08-22T10:58:35.683Z,59.06
2022-08-22T10:59:36.500Z,60.36
2022-08-22T11:00:37.378Z,59.66
2022-08-22T11:01:42.023Z,58.83
2022-08-22T11:02:38.962Z,57.83
2022-08-22T11:03:39.601Z,57.93
2022-08-22T11:04:40.391Z,57.83
2022-08-22T11:05:41.209Z,57.63
2022-08-22T11:06:42.007Z,57.53
2022-08-22T11:07:42.607Z,56.60
2022-08-22T11:08:44.310Z,56.40
2022-08-22T11:09:44.128Z,56.60
2022-08-22T11:10:44.956Z,56.90
2022-08-22T11:11:45.786Z,56.20
2022-08-22T11:12:46.314Z,55.50
2022-08-22T11:13:47.169Z,53.89
2022-08-22T11:14:47.983Z,55.30
2022-08-22T11:15:48.885Z,55.60
2022-08-22T11:16:55.012Z,55.50
2022-08-22T11:17:54.147Z,54.70
2022-08-22T11:18:57.856Z,54.52
2022-08-22T11:19:52.913Z,53.62
2022-08-22T11:20:52.724Z,54.30
2022-08-22T11:21:53.553Z,55.00
2022-08-22T11:22:55.798Z,55.30
2022-08-22T11:23:55.152Z,55.10
2022-08-22T11:24:56.822Z,54.30
2022-08-22T11:25:56.820Z,54.39
2022-08-22T11:26:57.366Z,54.30
2022-08-22T11:27:58.184Z,53.50
2022-08-22T11:29:07.850Z,53.89
2022-08-22T11:30:01.391Z,53.67
2022-08-22T11:31:00.503Z,54.27
2022-08-22T11:32:06.202Z,54.17
2022-08-22T11:33:03.367Z,53.87
2022-08-22T11:34:02.740Z,54.07
2022-08-22T11:35:03.560Z,54.77
2022-08-22T11:36:05.281Z,54.27
2022-08-22T11:37:11.077Z,55.07
2022-08-22T11:38:08.965Z,54.27
2022-08-22T11:39:07.914Z,54.57
2022-08-22T11:40:08.143Z,54.37
2022-08-22T11:41:07.668Z,55.05
2022-08-22T11:42:08.482Z,54.35
2022-08-22T11:43:11.986Z,50.84
2022-08-22T11:44:11.017Z,51.57
2022-08-22T11:45:13.035Z,52.77
2022-08-22T11:46:12.562Z,51.97
2022-08-22T11:47:12.461Z,52.77
2022-08-22T11:48:13.282Z,52.84
2022-08-22T11:49:14.095Z,53.44
2022-08-22T11:50:14.925Z,53.94
2022-08-22T11:51:15.749Z,53.34
2022-08-22T11:52:16.569Z,52.04
2022-08-22T11:53:17.175Z,51.54
2022-08-22T11:54:17.993Z,51.94
2022-08-22T11:55:18.671Z,51.44
2022-08-22T11:56:19.522Z,52.84
2022-08-22T11:57:20.331Z,52.74
2022-08-22T11:58:21.268Z,51.84
2022-08-22T11:59:22.980Z,50.54
2022-08-22T12:00:22.798Z,50.24
2022-08-22T12:01:23.727Z,51.04
2022-08-22T12:02:24.587Z,51.84
2022-08-22T12:03:25.381Z,52.24
2022-08-22T12:04:26.210Z,52.84
2022-08-22T12:05:27.039Z,51.84
2022-08-22T12:06:27.867Z,51.92
2022-08-22T12:07:28.694Z,51.34
2022-08-22T12:08:29.530Z,51.12
2022-08-22T12:09:30.349Z,52.34
2022-08-22T12:10:31.310Z,52.64
2022-08-22T12:11:32.158Z,52.44
2022-08-22T12:12:32.995Z,53.64
2022-08-22T12:13:34.848Z,54.24
2022-08-22T12:14:34.714Z,54.14
2022-08-22T12:15:35.569Z,53.87
2022-08-22T12:16:36.398Z,54.87
2022-08-22T12:17:55.796Z,55.90
2022-08-22T12:18:38.940Z,55.90
2022-08-22T12:19:48.933Z,56.60
2022-08-22T12:20:40.153Z,56.33
2022-08-22T12:21:40.871Z,57.23
2022-08-22T12:22:40.708Z,57.53
2022-08-22T12:23:48.922Z,58.63
2022-08-22T12:24:43.137Z,59.03
2022-08-22T12:25:44.470Z,59.33
2022-08-22T12:26:43.518Z,59.11
2022-08-22T12:27:48.231Z,57.20
2022-08-22T12:28:46.087Z,57.80
2022-08-22T12:29:45.785Z,57.30
2022-08-22T12:30:46.603Z,58.40
2022-08-22T12:31:47.444Z,58.48
2022-08-22T12:32:48.964Z,57.17
2022-08-22T12:33:48.870Z,56.48
2022-08-22T12:34:49.701Z,55.47
2022-08-22T12:35:50.517Z,56.07
2022-08-22T12:36:51.508Z,55.87
2022-08-22T12:37:53.012Z,55.27
2022-08-22T12:38:53.057Z,54.97
2022-08-22T12:39:53.942Z,54.87
2022-08-22T12:40:54.749Z,56.17
2022-08-22T12:41:55.574Z,57.07
2022-08-22T12:42:56.283Z,57.28
2022-08-22T12:43:57.261Z,56.87
2022-08-22T12:44:58.093Z,55.98
2022-08-22T12:45:59.023Z,56.67
2022-08-22T12:46:59.830Z,56.55
2022-08-22T12:48:00.946Z,55.47
2022-08-22T12:49:01.237Z,54.97
2022-08-22T12:50:02.956Z,55.17
2022-08-22T12:51:02.480Z,55.47
2022-08-22T12:52:04.089Z,55.27
2022-08-22T12:53:03.887Z,55.17
2022-08-22T12:54:04.774Z,55.57
2022-08-22T12:55:05.595Z,54.37
2022-08-22T12:56:06.261Z,54.47